»·PEaware :: N234WT KWHP-KPSP

N234WT :: KWHP-KPSP

FLIGHT INFORMATION

Flight Status: Arrived
Operator: Privately registered:
United States
More flights under this callsign
Pilot: Matt T. (44807)
Aircraft: Diamond DA-40
(DA40)
More flights by this aircraft type
Origin: KWHP Whiteman
United States
Destination: KPSP Palm Springs Intl
United States
More flights between these airports :: More routes between these airports
Route:
File this flight plan on PilotEdge
Remarks:
Altitude:
(Current/Filed)
0ft
Speed:
(Current/Filed)
0kts
Departed: 03-Nov-23 07:02 PM
Arrived: 03-Nov-23 08:02 PM
Distance/Time
Traveled:
99nm/1:00
Distance/Time
To Go:
Arrived

Flight Plot

Page will automatically refresh every two minutes.


Map Options




Map Legend


Flown Route
Filed Route
Departure Airport
Arrival Airport
Navaid (VOR, NDB)
Fix

Horizontal Profiles

Position Reports

Time Latitude Longitude Heading Altitude Ground
Speed
03-Nov-23 19:01 34.260496 -118.298932 135 7230ft 107kts
03-Nov-23 19:02 34.234929 -118.269923 135 7497ft 143kts
03-Nov-23 19:03 34.218927 -118.227586 103 7511ft 138kts
03-Nov-23 19:04 34.209165 -118.182962 104 7499ft 136kts
03-Nov-23 19:05 34.199468 -118.138658 104 7499ft 136kts
03-Nov-23 19:06 34.189733 -118.094280 104 7500ft 136kts
03-Nov-23 19:06 34.181678 -118.057588 104 7501ft 133kts
03-Nov-23 19:08 34.170619 -118.007288 104 7504ft 132kts
03-Nov-23 19:09 34.161140 -117.964260 104 7507ft 132kts
03-Nov-23 19:10 34.151644 -117.921344 104 7508ft 132kts
03-Nov-23 19:11 34.142195 -117.878453 104 7509ft 132kts
03-Nov-23 19:11 34.134273 -117.842779 104 7506ft 132kts
03-Nov-23 19:12 34.124784 -117.800034 104 7507ft 132kts
03-Nov-23 19:13 34.115267 -117.757227 104 7510ft 132kts
03-Nov-23 19:15 34.104132 -117.707260 104 7510ft 131kts
03-Nov-23 19:16 34.094635 -117.664700 104 7508ft 131kts
03-Nov-23 19:16 34.086688 -117.629172 104 7499ft 131kts
03-Nov-23 19:17 34.077140 -117.586505 104 7497ft 132kts
03-Nov-23 19:18 34.067549 -117.543786 104 7500ft 132kts
03-Nov-23 19:19 34.057902 -117.500857 104 7500ft 132kts
03-Nov-23 19:20 34.048246 -117.457989 104 7498ft 132kts
03-Nov-23 19:21 34.038518 -117.414855 104 7500ft 133kts
03-Nov-23 19:22 34.028799 -117.371828 104 7498ft 132kts
03-Nov-23 19:23 34.019105 -117.329004 104 7517ft 132kts
03-Nov-23 19:24 34.009419 -117.286275 104 7516ft 132kts
03-Nov-23 19:25 33.999710 -117.243540 104 7519ft 132kts
03-Nov-23 19:26 33.989947 -117.200642 104 7519ft 132kts
03-Nov-23 19:27 33.980158 -117.157711 104 7517ft 133kts
03-Nov-23 19:28 33.970334 -117.114650 103 7516ft 133kts
03-Nov-23 19:29 33.960526 -117.071784 103 7513ft 133kts
03-Nov-23 19:30 33.950693 -117.028881 103 7515ft 132kts
03-Nov-23 19:31 33.940855 -116.986018 104 7524ft 132kts
03-Nov-23 19:32 33.931040 -116.943346 104 7521ft 132kts
03-Nov-23 19:33 33.921188 -116.900556 104 7525ft 133kts
03-Nov-23 19:34 33.911265 -116.857547 104 7524ft 133kts
03-Nov-23 19:35 33.901311 -116.814457 104 7523ft 133kts
03-Nov-23 19:36 33.891354 -116.771423 104 7511ft 133kts
03-Nov-23 19:37 33.881348 -116.728381 104 7506ft 133kts
03-Nov-23 19:38 33.871319 -116.685191 104 7504ft 132kts
03-Nov-23 19:39 33.861393 -116.642529 104 7500ft 133kts
03-Nov-23 19:40 33.851334 -116.599416 104 7503ft 134kts
03-Nov-23 19:41 33.841269 -116.556297 103 7500ft 133kts
03-Nov-23 19:42 33.831264 -116.513525 103 7499ft 132kts
03-Nov-23 19:43 33.811983 -116.476172 122 7492ft 131kts
03-Nov-23 19:44 33.790889 -116.439792 123 7499ft 134kts
03-Nov-23 19:45 33.769485 -116.402927 123 7498ft 134kts
03-Nov-23 19:46 33.745818 -116.362181 123 6627ft 155kts
03-Nov-23 19:47 33.720945 -116.319460 123 5601ft 156kts
03-Nov-23 19:48 33.692494 -116.312461 272 5146ft 134kts
03-Nov-23 19:49 33.714358 -116.344372 301 5157ft 128kts
03-Nov-23 19:50 33.731599 -116.381641 300 5190ft 127kts
03-Nov-23 19:51 33.752238 -116.417054 307 4069ft 156kts
03-Nov-23 19:52 33.781563 -116.455109 303 1462ft 122kts
03-Nov-23 19:53 33.801601 -116.480585 309 990ft 100kts
03-Nov-23 19:54 33.821830 -116.500136 321 858ft 85kts
03-Nov-23 19:55 33.843560 -116.520791 314 1095ft 110kts
03-Nov-23 19:56 33.863996 -116.514833 89 1071ft 107kts
03-Nov-23 19:57 33.841471 -116.496131 144 1059ft 95kts
03-Nov-23 19:58 33.820217 -116.478166 143 901ft 78kts
03-Nov-23 19:59 33.804961 -116.479764 305 515ft 79kts
03-Nov-23 20:00 33.820030 -116.499052 321 441ft 75kts
03-Nov-23 20:01 33.829368 -116.507121 348 436ft 23kts
03-Nov-23 20:02 33.831077 -116.507173 59 438ft 9kts
03-Nov-23 20:03 33.827922 -116.502240 144 419ft 32kts
03-Nov-23 20:04 33.823697 -116.497509 52 403ft 0kts
03-Nov-23 20:05 33.823697 -116.497509 52 403ft 0kts
03-Nov-23 20:06 33.823697 -116.497508 52 403ft 0kts
03-Nov-23 20:07 33.823697 -116.497508 52 403ft 0kts
03-Nov-23 20:08 33.823697 -116.497508 52 403ft 0kts
03-Nov-23 20:09 33.823697 -116.497508 52 403ft 0kts
03-Nov-23 20:10 33.823697 -116.497508 52 403ft 0kts
03-Nov-23 20:11 33.823697 -116.497508 52 403ft 0kts
03-Nov-23 20:12 33.823697 -116.497508 52 403ft 0kts
03-Nov-23 20:13 33.823697 -116.497508 52 403ft 0kts
03-Nov-23 20:14 33.823697 -116.497508 52 403ft 0kts
03-Nov-23 20:15 33.823697 -116.497508 52 403ft 0kts

Navigation Log

Ident Type
Flight plan parsing failed, navigation log unavailable